sensor_id;sensor_type;location;lat;lon;timestamp;P1;durP1;ratioP1;P2;durP2;ratioP2
51810;SDS011;52468;40.116;18.296;2023-06-22T00:00:26;10.07;;;7.33;;
51810;SDS011;52468;40.116;18.296;2023-06-22T00:02:54;8.77;;;7.87;;
51810;SDS011;52468;40.116;18.296;2023-06-22T00:05:22;8.70;;;7.33;;
51810;SDS011;52468;40.116;18.296;2023-06-22T00:07:50;8.47;;;7.13;;
51810;SDS011;52468;40.116;18.296;2023-06-22T00:10:18;11.13;;;8.00;;
51810;SDS011;52468;40.116;18.296;2023-06-22T00:12:46;9.33;;;7.63;;
51810;SDS011;52468;40.116;18.296;2023-06-22T00:15:13;7.83;;;6.90;;
51810;SDS011;52468;40.116;18.296;2023-06-22T00:17:41;9.07;;;7.03;;
51810;SDS011;52468;40.116;18.296;2023-06-22T00:20:09;9.30;;;7.67;;
51810;SDS011;52468;40.116;18.296;2023-06-22T00:22:38;10.17;;;6.80;;
51810;SDS011;52468;40.116;18.296;2023-06-22T00:25:06;16.07;;;9.23;;
51810;SDS011;52468;40.116;18.296;2023-06-22T00:27:35;9.33;;;8.40;;
51810;SDS011;52468;40.116;18.296;2023-06-22T00:30:06;10.23;;;7.40;;
51810;SDS011;52468;40.116;18.296;2023-06-22T00:32:34;8.90;;;7.57;;
51810;SDS011;52468;40.116;18.296;2023-06-22T00:35:02;9.30;;;7.10;;
51810;SDS011;52468;40.116;18.296;2023-06-22T00:37:31;9.60;;;7.63;;
51810;SDS011;52468;40.116;18.296;2023-06-22T00:39:58;8.87;;;7.93;;
51810;SDS011;52468;40.116;18.296;2023-06-22T00:42:26;11.13;;;6.50;;
51810;SDS011;52468;40.116;18.296;2023-06-22T00:44:54;11.73;;;8.70;;
51810;SDS011;52468;40.116;18.296;2023-06-22T00:47:23;8.53;;;7.17;;
51810;SDS011;52468;40.116;18.296;2023-06-22T00:49:52;12.67;;;8.13;;
51810;SDS011;52468;40.116;18.296;2023-06-22T00:52:20;10.97;;;7.33;;
51810;SDS011;52468;40.116;18.296;2023-06-22T00:54:56;10.80;;;7.70;;
51810;SDS011;52468;40.116;18.296;2023-06-22T00:57:24;8.47;;;7.47;;
51810;SDS011;52468;40.116;18.296;2023-06-22T00:59:55;8.57;;;7.63;;
51810;SDS011;52468;40.116;18.296;2023-06-22T01:02:23;8.57;;;7.50;;
51810;SDS011;52468;40.116;18.296;2023-06-22T01:04:51;9.57;;;7.70;;
51810;SDS011;52468;40.116;18.296;2023-06-22T01:10:11;11.50;;;8.13;;
51810;SDS011;52468;40.116;18.296;2023-06-22T01:12:47;10.40;;;7.00;;
51810;SDS011;52468;40.116;18.296;2023-06-22T01:15:27;11.53;;;8.17;;
51810;SDS011;52468;40.116;18.296;2023-06-22T01:17:58;10.97;;;8.10;;
51810;SDS011;52468;40.116;18.296;2023-06-22T01:20:28;10.43;;;7.87;;
51810;SDS011;52468;40.116;18.296;2023-06-22T01:25:31;10.27;;;8.87;;
51810;SDS011;52468;40.116;18.296;2023-06-22T01:28:09;11.97;;;8.87;;
51810;SDS011;52468;40.116;18.296;2023-06-22T01:30:49;11.07;;;8.97;;
51810;SDS011;52468;40.116;18.296;2023-06-22T01:33:34;13.47;;;9.57;;
51810;SDS011;52468;40.116;18.296;2023-06-22T01:36:04;11.80;;;10.07;;
51810;SDS011;52468;40.116;18.296;2023-06-22T01:38:34;16.00;;;8.90;;
51810;SDS011;52468;40.116;18.296;2023-06-22T01:41:03;10.93;;;8.77;;
51810;SDS011;52468;40.116;18.296;2023-06-22T01:43:31;10.47;;;9.00;;
51810;SDS011;52468;40.116;18.296;2023-06-22T01:46:01;14.17;;;9.90;;
51810;SDS011;52468;40.116;18.296;2023-06-22T01:48:30;12.10;;;8.83;;
51810;SDS011;52468;40.116;18.296;2023-06-22T01:51:01;10.93;;;9.67;;
51810;SDS011;52468;40.116;18.296;2023-06-22T01:53:30;9.13;;;7.57;;
51810;SDS011;52468;40.116;18.296;2023-06-22T01:55:58;12.67;;;9.43;;
51810;SDS011;52468;40.116;18.296;2023-06-22T01:58:29;10.33;;;8.80;;
51810;SDS011;52468;40.116;18.296;2023-06-22T02:01:12;14.70;;;8.80;;
51810;SDS011;52468;40.116;18.296;2023-06-22T02:03:47;13.53;;;9.33;;
51810;SDS011;52468;40.116;18.296;2023-06-22T02:06:24;11.27;;;9.80;;
51810;SDS011;52468;40.116;18.296;2023-06-22T02:09:02;11.33;;;7.93;;
51810;SDS011;52468;40.116;18.296;2023-06-22T02:11:37;13.40;;;8.13;;
51810;SDS011;52468;40.116;18.296;2023-06-22T02:14:09;11.03;;;9.83;;
51810;SDS011;52468;40.116;18.296;2023-06-22T02:16:38;10.20;;;8.60;;
51810;SDS011;52468;40.116;18.296;2023-06-22T02:19:08;10.10;;;8.10;;
51810;SDS011;52468;40.116;18.296;2023-06-22T02:21:36;10.00;;;8.93;;
51810;SDS011;52468;40.116;18.296;2023-06-22T02:24:05;10.17;;;9.13;;
51810;SDS011;52468;40.116;18.296;2023-06-22T02:26:33;13.20;;;8.70;;
51810;SDS011;52468;40.116;18.296;2023-06-22T02:29:01;12.93;;;9.10;;
51810;SDS011;52468;40.116;18.296;2023-06-22T02:31:29;9.90;;;8.87;;
51810;SDS011;52468;40.116;18.296;2023-06-22T02:33:58;12.00;;;9.07;;
51810;SDS011;52468;40.116;18.296;2023-06-22T02:36:26;10.77;;;9.67;;
51810;SDS011;52468;40.116;18.296;2023-06-22T02:38:54;11.30;;;9.07;;
51810;SDS011;52468;40.116;18.296;2023-06-22T02:41:26;10.47;;;8.63;;
51810;SDS011;52468;40.116;18.296;2023-06-22T02:43:56;13.90;;;9.53;;
51810;SDS011;52468;40.116;18.296;2023-06-22T02:46:24;10.77;;;8.90;;
51810;SDS011;52468;40.116;18.296;2023-06-22T02:48:52;12.13;;;9.37;;
51810;SDS011;52468;40.116;18.296;2023-06-22T02:51:20;10.77;;;8.67;;
51810;SDS011;52468;40.116;18.296;2023-06-22T02:53:48;9.83;;;8.67;;
51810;SDS011;52468;40.116;18.296;2023-06-22T02:56:20;9.95;;;8.95;;
51810;SDS011;52468;40.116;18.296;2023-06-22T02:58:57;11.27;;;9.23;;
51810;SDS011;52468;40.116;18.296;2023-06-22T03:01:33;10.87;;;9.20;;
51810;SDS011;52468;40.116;18.296;2023-06-22T03:04:18;9.80;;;8.80;;
51810;SDS011;52468;40.116;18.296;2023-06-22T03:06:46;11.33;;;8.83;;
51810;SDS011;52468;40.116;18.296;2023-06-22T03:09:18;13.23;;;10.03;;
51810;SDS011;52468;40.116;18.296;2023-06-22T03:11:46;10.57;;;9.57;;
51810;SDS011;52468;40.116;18.296;2023-06-22T03:14:14;12.43;;;10.50;;
51810;SDS011;52468;40.116;18.296;2023-06-22T03:16:42;10.87;;;9.60;;
51810;SDS011;52468;40.116;18.296;2023-06-22T03:19:11;13.23;;;9.53;;
51810;SDS011;52468;40.116;18.296;2023-06-22T03:21:39;10.30;;;8.97;;
51810;SDS011;52468;40.116;18.296;2023-06-22T03:24:07;10.83;;;9.20;;
51810;SDS011;52468;40.116;18.296;2023-06-22T03:26:35;11.57;;;9.40;;
51810;SDS011;52468;40.116;18.296;2023-06-22T03:29:03;11.87;;;10.17;;
51810;SDS011;52468;40.116;18.296;2023-06-22T03:31:34;28.03;;;10.43;;
51810;SDS011;52468;40.116;18.296;2023-06-22T03:34:04;11.77;;;8.70;;
51810;SDS011;52468;40.116;18.296;2023-06-22T03:36:32;13.87;;;10.27;;
51810;SDS011;52468;40.116;18.296;2023-06-22T03:39:01;12.10;;;9.37;;
51810;SDS011;52468;40.116;18.296;2023-06-22T03:41:30;11.13;;;8.97;;
51810;SDS011;52468;40.116;18.296;2023-06-22T03:43:58;12.37;;;9.30;;
51810;SDS011;52468;40.116;18.296;2023-06-22T03:46:26;9.27;;;8.30;;
51810;SDS011;52468;40.116;18.296;2023-06-22T03:48:54;9.77;;;8.17;;
51810;SDS011;52468;40.116;18.296;2023-06-22T03:51:22;9.17;;;8.20;;
51810;SDS011;52468;40.116;18.296;2023-06-22T03:53:50;10.77;;;8.17;;
51810;SDS011;52468;40.116;18.296;2023-06-22T03:56:18;12.03;;;9.40;;
51810;SDS011;52468;40.116;18.296;2023-06-22T03:58:47;12.67;;;8.27;;
51810;SDS011;52468;40.116;18.296;2023-06-22T04:01:15;8.87;;;7.43;;
51810;SDS011;52468;40.116;18.296;2023-06-22T04:03:44;9.43;;;8.00;;
51810;SDS011;52468;40.116;18.296;2023-06-22T04:06:12;9.50;;;7.53;;
51810;SDS011;52468;40.116;18.296;2023-06-22T04:08:40;14.03;;;8.10;;
51810;SDS011;52468;40.116;18.296;2023-06-22T04:11:08;8.77;;;7.77;;
51810;SDS011;52468;40.116;18.296;2023-06-22T04:13:36;13.33;;;8.97;;
51810;SDS011;52468;40.116;18.296;2023-06-22T04:16:04;11.17;;;9.03;;
51810;SDS011;52468;40.116;18.296;2023-06-22T04:18:32;12.53;;;8.23;;
51810;SDS011;52468;40.116;18.296;2023-06-22T04:21:00;9.80;;;7.90;;
51810;SDS011;52468;40.116;18.296;2023-06-22T04:23:28;11.07;;;7.53;;
51810;SDS011;52468;40.116;18.296;2023-06-22T04:25:56;10.60;;;8.40;;
51810;SDS011;52468;40.116;18.296;2023-06-22T04:28:25;9.20;;;7.47;;
51810;SDS011;52468;40.116;18.296;2023-06-22T04:30:54;15.17;;;8.00;;
51810;SDS011;52468;40.116;18.296;2023-06-22T04:33:25;8.70;;;7.13;;
51810;SDS011;52468;40.116;18.296;2023-06-22T04:35:53;9.93;;;7.73;;
51810;SDS011;52468;40.116;18.296;2023-06-22T04:38:21;10.10;;;7.57;;
51810;SDS011;52468;40.116;18.296;2023-06-22T04:40:49;7.40;;;6.70;;
51810;SDS011;52468;40.116;18.296;2023-06-22T04:43:17;17.63;;;7.57;;
51810;SDS011;52468;40.116;18.296;2023-06-22T04:45:46;8.53;;;6.90;;
51810;SDS011;52468;40.116;18.296;2023-06-22T04:48:19;7.97;;;7.07;;
51810;SDS011;52468;40.116;18.296;2023-06-22T04:50:47;11.30;;;7.33;;
51810;SDS011;52468;40.116;18.296;2023-06-22T04:53:15;9.40;;;7.60;;
51810;SDS011;52468;40.116;18.296;2023-06-22T04:55:43;8.90;;;7.23;;
51810;SDS011;52468;40.116;18.296;2023-06-22T04:58:13;9.73;;;6.10;;
51810;SDS011;52468;40.116;18.296;2023-06-22T05:00:41;11.07;;;6.60;;
51810;SDS011;52468;40.116;18.296;2023-06-22T05:03:11;9.13;;;7.03;;
51810;SDS011;52468;40.116;18.296;2023-06-22T05:05:45;7.37;;;5.80;;
51810;SDS011;52468;40.116;18.296;2023-06-22T05:08:13;9.83;;;6.30;;
51810;SDS011;52468;40.116;18.296;2023-06-22T05:10:41;8.50;;;6.17;;
51810;SDS011;52468;40.116;18.296;2023-06-22T05:13:14;8.43;;;5.90;;
51810;SDS011;52468;40.116;18.296;2023-06-22T05:15:42;6.83;;;6.13;;
51810;SDS011;52468;40.116;18.296;2023-06-22T05:18:11;6.33;;;5.00;;
51810;SDS011;52468;40.116;18.296;2023-06-22T05:20:39;6.97;;;5.53;;
51810;SDS011;52468;40.116;18.296;2023-06-22T05:23:07;6.43;;;5.77;;
51810;SDS011;52468;40.116;18.296;2023-06-22T05:25:35;10.37;;;6.83;;
51810;SDS011;52468;40.116;18.296;2023-06-22T05:28:03;9.93;;;6.03;;
51810;SDS011;52468;40.116;18.296;2023-06-22T05:30:38;9.57;;;5.87;;
51810;SDS011;52468;40.116;18.296;2023-06-22T05:33:06;8.53;;;5.43;;
51810;SDS011;52468;40.116;18.296;2023-06-22T05:35:34;7.80;;;5.37;;
51810;SDS011;52468;40.116;18.296;2023-06-22T05:38:02;6.97;;;4.90;;
51810;SDS011;52468;40.116;18.296;2023-06-22T05:40:30;9.45;;;5.70;;
51810;SDS011;52468;40.116;18.296;2023-06-22T05:42:57;8.83;;;6.03;;
51810;SDS011;52468;40.116;18.296;2023-06-22T05:45:27;11.33;;;6.17;;
51810;SDS011;52468;40.116;18.296;2023-06-22T05:47:55;8.03;;;6.13;;
51810;SDS011;52468;40.116;18.296;2023-06-22T05:50:23;8.25;;;5.90;;
51810;SDS011;52468;40.116;18.296;2023-06-22T05:52:51;7.22;;;6.53;;
51810;SDS011;52468;40.116;18.296;2023-06-22T05:55:19;19.80;;;7.53;;
51810;SDS011;52468;40.116;18.296;2023-06-22T05:57:47;12.40;;;6.15;;
51810;SDS011;52468;40.116;18.296;2023-06-22T06:00:15;10.15;;;5.15;;
51810;SDS011;52468;40.116;18.296;2023-06-22T06:02:44;8.23;;;5.18;;
51810;SDS011;52468;40.116;18.296;2023-06-22T06:05:12;7.18;;;6.03;;
51810;SDS011;52468;40.116;18.296;2023-06-22T06:07:43;12.50;;;5.80;;
51810;SDS011;52468;40.116;18.296;2023-06-22T06:10:12;5.40;;;4.88;;
51810;SDS011;52468;40.116;18.296;2023-06-22T06:12:40;9.50;;;6.03;;
51810;SDS011;52468;40.116;18.296;2023-06-22T06:15:08;7.95;;;4.97;;
51810;SDS011;52468;40.116;18.296;2023-06-22T06:17:52;6.57;;;5.43;;
51810;SDS011;52468;40.116;18.296;2023-06-22T06:20:21;6.97;;;4.13;;
51810;SDS011;52468;40.116;18.296;2023-06-22T06:22:50;5.15;;;4.60;;
51810;SDS011;52468;40.116;18.296;2023-06-22T06:25:18;8.40;;;5.30;;
51810;SDS011;52468;40.116;18.296;2023-06-22T06:27:49;6.60;;;4.82;;
51810;SDS011;52468;40.116;18.296;2023-06-22T06:30:19;15.40;;;5.43;;
51810;SDS011;52468;40.116;18.296;2023-06-22T06:32:47;8.48;;;6.38;;
51810;SDS011;52468;40.116;18.296;2023-06-22T06:35:15;9.25;;;6.68;;
51810;SDS011;52468;40.116;18.296;2023-06-22T06:37:45;7.68;;;5.70;;
51810;SDS011;52468;40.116;18.296;2023-06-22T06:40:15;8.68;;;4.97;;
51810;SDS011;52468;40.116;18.296;2023-06-22T06:42:44;12.82;;;5.10;;
51810;SDS011;52468;40.116;18.296;2023-06-22T06:45:23;5.35;;;4.85;;
51810;SDS011;52468;40.116;18.296;2023-06-22T06:47:51;8.05;;;5.32;;
51810;SDS011;52468;40.116;18.296;2023-06-22T06:50:20;14.77;;;5.40;;
51810;SDS011;52468;40.116;18.296;2023-06-22T06:52:47;9.45;;;5.00;;
51810;SDS011;52468;40.116;18.296;2023-06-22T06:55:17;6.97;;;4.80;;
51810;SDS011;52468;40.116;18.296;2023-06-22T06:57:46;11.77;;;4.68;;
51810;SDS011;52468;40.116;18.296;2023-06-22T07:00:15;6.55;;;5.53;;
51810;SDS011;52468;40.116;18.296;2023-06-22T07:02:44;5.60;;;4.38;;
51810;SDS011;52468;40.116;18.296;2023-06-22T07:05:13;5.63;;;4.55;;
51810;SDS011;52468;40.116;18.296;2023-06-22T07:07:40;10.70;;;5.63;;
51810;SDS011;52468;40.116;18.296;2023-06-22T07:10:11;8.35;;;4.45;;
51810;SDS011;52468;40.116;18.296;2023-06-22T07:12:39;6.85;;;5.28;;
51810;SDS011;52468;40.116;18.296;2023-06-22T07:15:08;6.85;;;4.88;;
51810;SDS011;52468;40.116;18.296;2023-06-22T07:17:37;9.02;;;4.80;;
51810;SDS011;52468;40.116;18.296;2023-06-22T07:20:08;6.07;;;5.00;;
51810;SDS011;52468;40.116;18.296;2023-06-22T07:22:37;8.82;;;4.47;;
51810;SDS011;52468;40.116;18.296;2023-06-22T07:25:06;6.13;;;4.78;;
51810;SDS011;52468;40.116;18.296;2023-06-22T07:28:20;5.03;;;4.53;;
51810;SDS011;52468;40.116;18.296;2023-06-22T07:30:30;9.55;;;4.60;;
51810;SDS011;52468;40.116;18.296;2023-06-22T07:32:59;10.18;;;4.65;;
51810;SDS011;52468;40.116;18.296;2023-06-22T07:35:31;5.68;;;4.07;;
51810;SDS011;52468;40.116;18.296;2023-06-22T07:37:59;6.07;;;4.40;;
51810;SDS011;52468;40.116;18.296;2023-06-22T07:40:29;10.77;;;5.32;;
51810;SDS011;52468;40.116;18.296;2023-06-22T07:42:57;9.25;;;5.45;;
51810;SDS011;52468;40.116;18.296;2023-06-22T07:45:25;12.63;;;5.28;;
51810;SDS011;52468;40.116;18.296;2023-06-22T07:47:53;11.85;;;6.05;;
51810;SDS011;52468;40.116;18.296;2023-06-22T07:50:21;5.22;;;4.72;;
51810;SDS011;52468;40.116;18.296;2023-06-22T07:52:48;6.97;;;3.90;;
51810;SDS011;52468;40.116;18.296;2023-06-22T07:55:17;6.40;;;4.20;;
51810;SDS011;52468;40.116;18.296;2023-06-22T07:57:46;4.70;;;4.20;;
51810;SDS011;52468;40.116;18.296;2023-06-22T08:00:16;6.30;;;4.38;;
51810;SDS011;52468;40.116;18.296;2023-06-22T08:02:45;4.00;;;3.60;;
51810;SDS011;52468;40.116;18.296;2023-06-22T08:05:14;7.38;;;4.63;;
51810;SDS011;52468;40.116;18.296;2023-06-22T08:07:45;6.88;;;4.28;;
51810;SDS011;52468;40.116;18.296;2023-06-22T08:10:14;7.20;;;4.57;;
51810;SDS011;52468;40.116;18.296;2023-06-22T08:12:42;5.03;;;4.13;;
51810;SDS011;52468;40.116;18.296;2023-06-22T08:15:10;7.38;;;4.28;;
51810;SDS011;52468;40.116;18.296;2023-06-22T08:17:38;10.32;;;3.80;;
51810;SDS011;52468;40.116;18.296;2023-06-22T08:20:07;5.53;;;4.15;;
51810;SDS011;52468;40.116;18.296;2023-06-22T08:25:08;8.85;;;4.45;;
51810;SDS011;52468;40.116;18.296;2023-06-22T08:27:38;5.50;;;3.97;;
51810;SDS011;52468;40.116;18.296;2023-06-22T08:30:06;10.23;;;5.78;;
51810;SDS011;52468;40.116;18.296;2023-06-22T08:32:38;7.65;;;4.90;;
51810;SDS011;52468;40.116;18.296;2023-06-22T08:35:06;6.75;;;4.40;;
51810;SDS011;52468;40.116;18.296;2023-06-22T08:37:39;6.93;;;5.05;;
51810;SDS011;52468;40.116;18.296;2023-06-22T08:40:08;11.48;;;5.20;;
51810;SDS011;52468;40.116;18.296;2023-06-22T08:42:40;8.88;;;4.78;;
51810;SDS011;52468;40.116;18.296;2023-06-22T08:45:10;6.75;;;4.15;;
51810;SDS011;52468;40.116;18.296;2023-06-22T08:47:42;10.43;;;5.22;;
51810;SDS011;52468;40.116;18.296;2023-06-22T08:50:12;6.55;;;5.03;;
51810;SDS011;52468;40.116;18.296;2023-06-22T08:52:40;4.85;;;4.18;;
51810;SDS011;52468;40.116;18.296;2023-06-22T08:55:11;5.22;;;4.72;;
51810;SDS011;52468;40.116;18.296;2023-06-22T08:57:42;5.82;;;4.03;;
51810;SDS011;52468;40.116;18.296;2023-06-22T09:00:12;8.32;;;4.82;;
51810;SDS011;52468;40.116;18.296;2023-06-22T09:02:49;7.13;;;5.32;;
51810;SDS011;52468;40.116;18.296;2023-06-22T09:05:18;7.90;;;4.90;;
51810;SDS011;52468;40.116;18.296;2023-06-22T09:07:49;10.52;;;4.65;;
51810;SDS011;52468;40.116;18.296;2023-06-22T09:10:19;4.18;;;3.75;;
51810;SDS011;52468;40.116;18.296;2023-06-22T09:12:48;6.10;;;4.82;;
51810;SDS011;52468;40.116;18.296;2023-06-22T09:15:16;6.50;;;4.40;;
51810;SDS011;52468;40.116;18.296;2023-06-22T09:17:44;9.75;;;5.20;;
51810;SDS011;52468;40.116;18.296;2023-06-22T09:20:16;9.15;;;4.38;;
51810;SDS011;52468;40.116;18.296;2023-06-22T09:22:44;9.75;;;5.03;;
51810;SDS011;52468;40.116;18.296;2023-06-22T09:25:12;5.95;;;3.75;;
51810;SDS011;52468;40.116;18.296;2023-06-22T09:27:40;5.82;;;4.35;;
51810;SDS011;52468;40.116;18.296;2023-06-22T09:30:08;5.90;;;4.55;;
51810;SDS011;52468;40.116;18.296;2023-06-22T09:32:36;7.50;;;4.50;;
51810;SDS011;52468;40.116;18.296;2023-06-22T09:35:05;5.75;;;4.72;;
51810;SDS011;52468;40.116;18.296;2023-06-22T09:37:34;9.07;;;4.30;;
51810;SDS011;52468;40.116;18.296;2023-06-22T09:40:03;8.13;;;4.32;;
51810;SDS011;52468;40.116;18.296;2023-06-22T09:42:36;6.72;;;4.70;;
51810;SDS011;52468;40.116;18.296;2023-06-22T09:45:04;8.40;;;4.35;;
51810;SDS011;52468;40.116;18.296;2023-06-22T09:47:32;9.13;;;3.90;;
51810;SDS011;52468;40.116;18.296;2023-06-22T09:50:00;7.03;;;4.28;;
51810;SDS011;52468;40.116;18.296;2023-06-22T09:52:28;8.73;;;4.85;;
51810;SDS011;52468;40.116;18.296;2023-06-22T09:55:01;8.95;;;4.63;;
51810;SDS011;52468;40.116;18.296;2023-06-22T09:57:31;7.30;;;3.92;;
51810;SDS011;52468;40.116;18.296;2023-06-22T10:00:00;7.57;;;4.60;;
51810;SDS011;52468;40.116;18.296;2023-06-22T10:02:31;5.60;;;4.72;;
51810;SDS011;52468;40.116;18.296;2023-06-22T10:05:03;4.80;;;4.15;;
51810;SDS011;52468;40.116;18.296;2023-06-22T10:07:32;8.35;;;4.47;;
51810;SDS011;52468;40.116;18.296;2023-06-22T10:10:00;7.88;;;5.05;;
51810;SDS011;52468;40.116;18.296;2023-06-22T10:12:28;4.90;;;4.40;;
51810;SDS011;52468;40.116;18.296;2023-06-22T10:14:56;8.43;;;5.03;;
51810;SDS011;52468;40.116;18.296;2023-06-22T10:17:23;10.05;;;4.95;;
51810;SDS011;52468;40.116;18.296;2023-06-22T10:19:51;6.68;;;4.68;;
51810;SDS011;52468;40.116;18.296;2023-06-22T10:22:20;5.07;;;4.57;;
51810;SDS011;52468;40.116;18.296;2023-06-22T10:24:48;6.68;;;4.38;;
51810;SDS011;52468;40.116;18.296;2023-06-22T10:27:16;4.85;;;4.35;;
51810;SDS011;52468;40.116;18.296;2023-06-22T10:29:44;9.13;;;5.07;;
51810;SDS011;52468;40.116;18.296;2023-06-22T10:32:12;6.00;;;4.68;;
51810;SDS011;52468;40.116;18.296;2023-06-22T10:34:40;9.50;;;5.40;;
51810;SDS011;52468;40.116;18.296;2023-06-22T10:37:08;6.32;;;4.78;;
51810;SDS011;52468;40.116;18.296;2023-06-22T10:39:35;7.88;;;5.10;;
51810;SDS011;52468;40.116;18.296;2023-06-22T10:42:04;8.40;;;4.90;;
51810;SDS011;52468;40.116;18.296;2023-06-22T10:44:32;7.15;;;4.53;;
51810;SDS011;52468;40.116;18.296;2023-06-22T10:47:00;6.25;;;4.43;;
51810;SDS011;52468;40.116;18.296;2023-06-22T10:49:28;9.02;;;4.90;;
51810;SDS011;52468;40.116;18.296;2023-06-22T10:51:55;9.63;;;4.47;;
51810;SDS011;52468;40.116;18.296;2023-06-22T10:54:23;9.90;;;5.63;;
51810;SDS011;52468;40.116;18.296;2023-06-22T10:56:51;5.38;;;4.50;;
51810;SDS011;52468;40.116;18.296;2023-06-22T10:59:19;9.10;;;4.35;;
51810;SDS011;52468;40.116;18.296;2023-06-22T11:01:50;7.25;;;4.63;;
51810;SDS011;52468;40.116;18.296;2023-06-22T11:04:18;10.32;;;4.28;;
51810;SDS011;52468;40.116;18.296;2023-06-22T11:06:45;6.15;;;4.88;;
51810;SDS011;52468;40.116;18.296;2023-06-22T11:09:15;5.28;;;4.78;;
51810;SDS011;52468;40.116;18.296;2023-06-22T11:11:51;8.07;;;4.65;;
51810;SDS011;52468;40.116;18.296;2023-06-22T11:14:22;8.52;;;4.68;;
51810;SDS011;52468;40.116;18.296;2023-06-22T11:16:50;7.32;;;4.03;;
51810;SDS011;52468;40.116;18.296;2023-06-22T11:19:18;6.97;;;4.20;;
51810;SDS011;52468;40.116;18.296;2023-06-22T11:21:46;5.35;;;4.38;;
51810;SDS011;52468;40.116;18.296;2023-06-22T11:24:14;8.10;;;4.47;;
51810;SDS011;52468;40.116;18.296;2023-06-22T11:26:43;8.23;;;4.85;;
51810;SDS011;52468;40.116;18.296;2023-06-22T11:29:11;5.05;;;4.10;;
51810;SDS011;52468;40.116;18.296;2023-06-22T11:31:42;4.87;;;4.17;;
51810;SDS011;52468;40.116;18.296;2023-06-22T11:34:10;6.85;;;5.47;;
51810;SDS011;52468;40.116;18.296;2023-06-22T11:36:38;6.20;;;4.75;;
51810;SDS011;52468;40.116;18.296;2023-06-22T11:39:08;5.35;;;4.55;;
51810;SDS011;52468;40.116;18.296;2023-06-22T11:41:37;8.98;;;4.53;;
51810;SDS011;52468;40.116;18.296;2023-06-22T11:44:05;6.70;;;4.50;;
51810;SDS011;52468;40.116;18.296;2023-06-22T11:46:33;5.80;;;4.15;;
51810;SDS011;52468;40.116;18.296;2023-06-22T11:49:02;6.88;;;4.32;;
51810;SDS011;52468;40.116;18.296;2023-06-22T11:51:30;9.85;;;4.20;;
51810;SDS011;52468;40.116;18.296;2023-06-22T11:53:58;6.38;;;5.07;;
51810;SDS011;52468;40.116;18.296;2023-06-22T11:56:26;8.07;;;4.97;;
51810;SDS011;52468;40.116;18.296;2023-06-22T11:58:55;7.78;;;4.57;;
51810;SDS011;52468;40.116;18.296;2023-06-22T12:01:23;10.15;;;4.43;;
51810;SDS011;52468;40.116;18.296;2023-06-22T12:03:50;16.20;;;4.55;;
51810;SDS011;52468;40.116;18.296;2023-06-22T12:06:18;9.43;;;4.47;;
51810;SDS011;52468;40.116;18.296;2023-06-22T12:08:46;8.73;;;4.10;;
51810;SDS011;52468;40.116;18.296;2023-06-22T12:11:14;6.40;;;4.20;;
51810;SDS011;52468;40.116;18.296;2023-06-22T12:13:42;6.20;;;4.60;;
51810;SDS011;52468;40.116;18.296;2023-06-22T12:16:10;8.68;;;4.22;;
51810;SDS011;52468;40.116;18.296;2023-06-22T12:18:39;5.63;;;4.30;;
51810;SDS011;52468;40.116;18.296;2023-06-22T12:21:07;5.68;;;3.67;;
51810;SDS011;52468;40.116;18.296;2023-06-22T12:23:35;6.10;;;3.83;;
51810;SDS011;52468;40.116;18.296;2023-06-22T12:26:03;10.45;;;4.18;;
51810;SDS011;52468;40.116;18.296;2023-06-22T12:28:31;8.50;;;3.90;;
51810;SDS011;52468;40.116;18.296;2023-06-22T12:30:59;9.18;;;4.18;;
51810;SDS011;52468;40.116;18.296;2023-06-22T12:33:27;5.80;;;3.90;;
51810;SDS011;52468;40.116;18.296;2023-06-22T12:35:55;8.88;;;3.53;;
51810;SDS011;52468;40.116;18.296;2023-06-22T12:38:23;11.10;;;4.65;;
51810;SDS011;52468;40.116;18.296;2023-06-22T12:40:54;7.20;;;4.15;;
51810;SDS011;52468;40.116;18.296;2023-06-22T12:43:21;9.40;;;4.22;;
51810;SDS011;52468;40.116;18.296;2023-06-22T12:45:49;9.05;;;4.35;;
51810;SDS011;52468;40.116;18.296;2023-06-22T12:48:17;6.22;;;3.85;;
51810;SDS011;52468;40.116;18.296;2023-06-22T12:50:45;8.80;;;4.65;;
51810;SDS011;52468;40.116;18.296;2023-06-22T12:53:15;11.13;;;4.32;;
51810;SDS011;52468;40.116;18.296;2023-06-22T12:55:43;9.25;;;3.78;;
51810;SDS011;52468;40.116;18.296;2023-06-22T12:58:11;9.25;;;4.55;;
51810;SDS011;52468;40.116;18.296;2023-06-22T13:00:38;7.78;;;3.97;;
51810;SDS011;52468;40.116;18.296;2023-06-22T13:03:06;5.78;;;4.40;;
51810;SDS011;52468;40.116;18.296;2023-06-22T13:05:34;8.90;;;4.82;;
51810;SDS011;52468;40.116;18.296;2023-06-22T13:08:03;5.25;;;4.07;;
51810;SDS011;52468;40.116;18.296;2023-06-22T13:10:31;13.52;;;4.28;;
51810;SDS011;52468;40.116;18.296;2023-06-22T13:12:59;8.68;;;4.30;;
51810;SDS011;52468;40.116;18.296;2023-06-22T13:15:28;7.95;;;4.75;;
51810;SDS011;52468;40.116;18.296;2023-06-22T13:17:56;6.15;;;4.25;;
51810;SDS011;52468;40.116;18.296;2023-06-22T13:20:24;7.88;;;4.35;;
51810;SDS011;52468;40.116;18.296;2023-06-22T13:22:52;5.55;;;4.25;;
51810;SDS011;52468;40.116;18.296;2023-06-22T13:25:21;5.20;;;4.53;;
51810;SDS011;52468;40.116;18.296;2023-06-22T13:27:53;6.70;;;4.50;;
51810;SDS011;52468;40.116;18.296;2023-06-22T13:30:21;5.90;;;4.25;;
51810;SDS011;52468;40.116;18.296;2023-06-22T13:32:49;6.70;;;4.43;;
51810;SDS011;52468;40.116;18.296;2023-06-22T13:35:17;7.00;;;4.78;;
51810;SDS011;52468;40.116;18.296;2023-06-22T13:37:45;6.55;;;4.25;;
51810;SDS011;52468;40.116;18.296;2023-06-22T13:40:19;8.80;;;4.80;;
51810;SDS011;52468;40.116;18.296;2023-06-22T13:42:46;4.82;;;4.40;;
51810;SDS011;52468;40.116;18.296;2023-06-22T13:45:14;8.27;;;4.50;;
51810;SDS011;52468;40.116;18.296;2023-06-22T13:47:44;6.07;;;4.97;;
51810;SDS011;52468;40.116;18.296;2023-06-22T13:50:12;6.45;;;4.50;;
51810;SDS011;52468;40.116;18.296;2023-06-22T13:52:40;5.82;;;4.45;;
51810;SDS011;52468;40.116;18.296;2023-06-22T13:55:08;7.45;;;4.97;;
51810;SDS011;52468;40.116;18.296;2023-06-22T13:57:37;5.80;;;4.28;;
51810;SDS011;52468;40.116;18.296;2023-06-22T14:00:05;7.03;;;4.90;;
51810;SDS011;52468;40.116;18.296;2023-06-22T14:02:37;8.40;;;5.78;;
51810;SDS011;52468;40.116;18.296;2023-06-22T14:05:06;5.00;;;4.28;;
51810;SDS011;52468;40.116;18.296;2023-06-22T14:07:35;9.73;;;5.00;;
51810;SDS011;52468;40.116;18.296;2023-06-22T14:10:03;13.65;;;5.28;;
51810;SDS011;52468;40.116;18.296;2023-06-22T14:12:31;7.97;;;4.38;;
51810;SDS011;52468;40.116;18.296;2023-06-22T14:14:59;8.80;;;4.55;;
51810;SDS011;52468;40.116;18.296;2023-06-22T14:17:27;10.90;;;4.97;;
51810;SDS011;52468;40.116;18.296;2023-06-22T14:19:55;9.13;;;4.43;;
51810;SDS011;52468;40.116;18.296;2023-06-22T14:22:23;7.35;;;4.47;;
51810;SDS011;52468;40.116;18.296;2023-06-22T14:24:51;6.13;;;4.32;;
51810;SDS011;52468;40.116;18.296;2023-06-22T14:27:19;5.82;;;4.65;;
51810;SDS011;52468;40.116;18.296;2023-06-22T14:29:47;8.82;;;4.25;;
51810;SDS011;52468;40.116;18.296;2023-06-22T14:32:15;7.10;;;4.15;;
51810;SDS011;52468;40.116;18.296;2023-06-22T14:34:42;5.93;;;4.32;;
51810;SDS011;52468;40.116;18.296;2023-06-22T14:37:10;7.05;;;5.18;;
51810;SDS011;52468;40.116;18.296;2023-06-22T14:39:40;8.57;;;4.53;;
51810;SDS011;52468;40.116;18.296;2023-06-22T14:42:08;8.57;;;4.75;;
51810;SDS011;52468;40.116;18.296;2023-06-22T14:44:36;10.63;;;5.28;;
51810;SDS011;52468;40.116;18.296;2023-06-22T14:47:04;7.70;;;4.60;;
51810;SDS011;52468;40.116;18.296;2023-06-22T14:49:32;8.10;;;4.10;;